sensor_id;sensor_type;location;lat;lon;timestamp;temperature;humidity
41437;DHT22;27178;49.460;10.850;2023-04-03T00:01:18;8.20;65.10
41437;DHT22;27178;49.460;10.850;2023-04-03T00:03:47;8.20;66.00
41437;DHT22;27178;49.460;10.850;2023-04-03T00:06:16;8.20;65.10
41437;DHT22;27178;49.460;10.850;2023-04-03T00:08:45;8.20;65.30
41437;DHT22;27178;49.460;10.850;2023-04-03T00:11:13;8.10;65.50
41437;DHT22;27178;49.460;10.850;2023-04-03T00:13:42;8.10;65.50
41437;DHT22;27178;49.460;10.850;2023-04-03T00:16:12;8.10;65.60
41437;DHT22;27178;49.460;10.850;2023-04-03T00:18:41;8.10;65.70
41437;DHT22;27178;49.460;10.850;2023-04-03T00:21:10;8.10;65.60
41437;DHT22;27178;49.460;10.850;2023-04-03T00:23:41;8.10;65.60
41437;DHT22;27178;49.460;10.850;2023-04-03T00:26:09;8.10;65.60
41437;DHT22;27178;49.460;10.850;2023-04-03T00:28:38;8.10;65.60
41437;DHT22;27178;49.460;10.850;2023-04-03T00:31:06;8.10;65.80
41437;DHT22;27178;49.460;10.850;2023-04-03T00:33:35;8.10;66.70
41437;DHT22;27178;49.460;10.850;2023-04-03T00:36:07;8.00;65.70
41437;DHT22;27178;49.460;10.850;2023-04-03T00:38:36;8.00;65.70
41437;DHT22;27178;49.460;10.850;2023-04-03T00:41:06;8.00;65.90
41437;DHT22;27178;49.460;10.850;2023-04-03T00:43:34;8.00;65.90
41437;DHT22;27178;49.460;10.850;2023-04-03T00:46:03;7.90;66.00
41437;DHT22;27178;49.460;10.850;2023-04-03T00:48:34;7.90;65.90
41437;DHT22;27178;49.460;10.850;2023-04-03T00:51:05;7.90;66.00
41437;DHT22;27178;49.460;10.850;2023-04-03T00:53:37;7.90;65.90
41437;DHT22;27178;49.460;10.850;2023-04-03T00:56:09;7.90;66.10
41437;DHT22;27178;49.460;10.850;2023-04-03T00:58:41;7.80;66.40
41437;DHT22;27178;49.460;10.850;2023-04-03T01:01:13;7.80;66.40
41437;DHT22;27178;49.460;10.850;2023-04-03T01:03:44;7.80;66.40
41437;DHT22;27178;49.460;10.850;2023-04-03T01:06:14;7.80;66.30
41437;DHT22;27178;49.460;10.850;2023-04-03T01:08:44;7.80;66.30
41437;DHT22;27178;49.460;10.850;2023-04-03T01:11:15;7.80;66.50
41437;DHT22;27178;49.460;10.850;2023-04-03T01:13:43;7.70;66.40
41437;DHT22;27178;49.460;10.850;2023-04-03T01:16:12;7.70;66.40
41437;DHT22;27178;49.460;10.850;2023-04-03T01:18:42;7.70;66.60
41437;DHT22;27178;49.460;10.850;2023-04-03T01:26:55;7.70;66.70
41437;DHT22;27178;49.460;10.850;2023-04-03T01:29:24;7.70;66.80
41437;DHT22;27178;49.460;10.850;2023-04-03T01:31:56;7.70;67.00
41437;DHT22;27178;49.460;10.850;2023-04-03T01:34:26;7.70;67.20
41437;DHT22;27178;49.460;10.850;2023-04-03T01:36:54;7.60;67.20
41437;DHT22;27178;49.460;10.850;2023-04-03T01:39:23;7.60;67.20
41437;DHT22;27178;49.460;10.850;2023-04-03T01:41:51;7.60;67.30
41437;DHT22;27178;49.460;10.850;2023-04-03T01:44:19;7.60;67.20
41437;DHT22;27178;49.460;10.850;2023-04-03T01:46:48;7.60;67.20
41437;DHT22;27178;49.460;10.850;2023-04-03T01:49:17;7.60;67.30
41437;DHT22;27178;49.460;10.850;2023-04-03T01:51:46;7.60;67.20
41437;DHT22;27178;49.460;10.850;2023-04-03T01:54:14;7.60;67.30
41437;DHT22;27178;49.460;10.850;2023-04-03T01:56:43;6.50;66.70
41437;DHT22;27178;49.460;10.850;2023-04-03T01:59:11;7.50;67.50
41437;DHT22;27178;49.460;10.850;2023-04-03T02:01:39;7.60;67.40
41437;DHT22;27178;49.460;10.850;2023-04-03T02:04:08;7.50;67.20
41437;DHT22;27178;49.460;10.850;2023-04-03T02:06:37;7.50;67.20
41437;DHT22;27178;49.460;10.850;2023-04-03T02:09:06;7.50;67.00
41437;DHT22;27178;49.460;10.850;2023-04-03T02:11:35;7.50;67.00
41437;DHT22;27178;49.460;10.850;2023-04-03T02:14:03;7.50;67.00
41437;DHT22;27178;49.460;10.850;2023-04-03T02:16:31;7.50;66.90
41437;DHT22;27178;49.460;10.850;2023-04-03T02:19:00;7.40;66.80
41437;DHT22;27178;49.460;10.850;2023-04-03T02:21:28;7.40;66.80
41437;DHT22;27178;49.460;10.850;2023-04-03T02:23:58;7.40;66.80
41437;DHT22;27178;49.460;10.850;2023-04-03T02:26:26;7.40;66.70
41437;DHT22;27178;49.460;10.850;2023-04-03T02:28:55;7.40;66.70
41437;DHT22;27178;49.460;10.850;2023-04-03T02:31:23;7.40;66.80
41437;DHT22;27178;49.460;10.850;2023-04-03T02:33:51;7.40;66.90
41437;DHT22;27178;49.460;10.850;2023-04-03T02:36:19;7.40;67.00
41437;DHT22;27178;49.460;10.850;2023-04-03T02:38:48;7.30;66.90
41437;DHT22;27178;49.460;10.850;2023-04-03T02:41:17;7.30;66.90
41437;DHT22;27178;49.460;10.850;2023-04-03T02:43:48;7.30;67.00
41437;DHT22;27178;49.460;10.850;2023-04-03T02:46:16;7.30;66.90
41437;DHT22;27178;49.460;10.850;2023-04-03T02:48:45;7.30;67.00
41437;DHT22;27178;49.460;10.850;2023-04-03T02:51:13;7.30;67.20
41437;DHT22;27178;49.460;10.850;2023-04-03T02:53:42;7.20;67.10
41437;DHT22;27178;49.460;10.850;2023-04-03T02:56:11;7.20;67.10
41437;DHT22;27178;49.460;10.850;2023-04-03T02:58:40;7.20;67.20
41437;DHT22;27178;49.460;10.850;2023-04-03T03:01:09;7.20;67.30
41437;DHT22;27178;49.460;10.850;2023-04-03T03:03:38;7.20;67.40
41437;DHT22;27178;49.460;10.850;2023-04-03T03:06:08;7.10;67.40
41437;DHT22;27178;49.460;10.850;2023-04-03T03:08:37;7.10;67.60
41437;DHT22;27178;49.460;10.850;2023-04-03T03:11:06;7.10;67.60
41437;DHT22;27178;49.460;10.850;2023-04-03T03:13:35;7.10;67.70
41437;DHT22;27178;49.460;10.850;2023-04-03T03:16:05;7.10;67.60
41437;DHT22;27178;49.460;10.850;2023-04-03T03:18:34;7.10;67.70
41437;DHT22;27178;49.460;10.850;2023-04-03T03:21:03;7.10;67.80
41437;DHT22;27178;49.460;10.850;2023-04-03T03:23:32;7.00;67.80
41437;DHT22;27178;49.460;10.850;2023-04-03T03:26:03;7.00;67.90
41437;DHT22;27178;49.460;10.850;2023-04-03T03:28:32;7.00;68.00
41437;DHT22;27178;49.460;10.850;2023-04-03T03:31:00;7.00;68.10
41437;DHT22;27178;49.460;10.850;2023-04-03T03:33:31;6.90;68.10
41437;DHT22;27178;49.460;10.850;2023-04-03T03:35:59;6.90;68.20
41437;DHT22;27178;49.460;10.850;2023-04-03T03:38:28;6.90;68.20
41437;DHT22;27178;49.460;10.850;2023-04-03T03:40:57;6.90;68.20
41437;DHT22;27178;49.460;10.850;2023-04-03T03:43:25;6.80;68.30
41437;DHT22;27178;49.460;10.850;2023-04-03T03:45:54;6.80;68.30
41437;DHT22;27178;49.460;10.850;2023-04-03T03:48:23;6.70;68.40
41437;DHT22;27178;49.460;10.850;2023-04-03T03:50:53;6.70;68.50
41437;DHT22;27178;49.460;10.850;2023-04-03T03:53:21;6.70;68.80
41437;DHT22;27178;49.460;10.850;2023-04-03T03:55:49;6.70;68.90
41437;DHT22;27178;49.460;10.850;2023-04-03T03:58:18;6.70;69.00
41437;DHT22;27178;49.460;10.850;2023-04-03T04:00:47;6.70;69.10
41437;DHT22;27178;49.460;10.850;2023-04-03T04:03:15;6.70;69.40
41437;DHT22;27178;49.460;10.850;2023-04-03T04:05:44;6.70;69.40
41437;DHT22;27178;49.460;10.850;2023-04-03T04:08:13;6.70;69.60
41437;DHT22;27178;49.460;10.850;2023-04-03T04:10:42;6.70;69.80
41437;DHT22;27178;49.460;10.850;2023-04-03T04:13:10;6.70;69.80
41437;DHT22;27178;49.460;10.850;2023-04-03T04:15:39;6.70;69.90
41437;DHT22;27178;49.460;10.850;2023-04-03T04:18:08;6.70;70.10
41437;DHT22;27178;49.460;10.850;2023-04-03T04:20:36;6.70;70.20
41437;DHT22;27178;49.460;10.850;2023-04-03T04:23:05;6.70;70.30
41437;DHT22;27178;49.460;10.850;2023-04-03T04:25:34;6.70;70.30
41437;DHT22;27178;49.460;10.850;2023-04-03T04:28:04;6.70;70.30
41437;DHT22;27178;49.460;10.850;2023-04-03T04:30:32;6.70;70.40
41437;DHT22;27178;49.460;10.850;2023-04-03T04:33:01;6.70;70.50
41437;DHT22;27178;49.460;10.850;2023-04-03T04:35:29;6.70;70.50
41437;DHT22;27178;49.460;10.850;2023-04-03T04:37:58;6.70;70.50
41437;DHT22;27178;49.460;10.850;2023-04-03T04:40:26;6.70;70.60
41437;DHT22;27178;49.460;10.850;2023-04-03T04:42:56;6.70;70.70
41437;DHT22;27178;49.460;10.850;2023-04-03T04:45:25;6.70;70.80
41437;DHT22;27178;49.460;10.850;2023-04-03T04:47:55;6.70;70.80
41437;DHT22;27178;49.460;10.850;2023-04-03T04:50:23;6.70;70.90
41437;DHT22;27178;49.460;10.850;2023-04-03T04:52:52;6.70;70.80
41437;DHT22;27178;49.460;10.850;2023-04-03T04:55:20;6.70;70.80
41437;DHT22;27178;49.460;10.850;2023-04-03T04:57:48;6.70;70.90
41437;DHT22;27178;49.460;10.850;2023-04-03T05:00:19;6.70;70.90
41437;DHT22;27178;49.460;10.850;2023-04-03T05:02:47;6.70;71.00
41437;DHT22;27178;49.460;10.850;2023-04-03T05:05:16;6.70;70.90
41437;DHT22;27178;49.460;10.850;2023-04-03T05:07:45;6.70;70.70
41437;DHT22;27178;49.460;10.850;2023-04-03T05:10:13;6.70;70.70
41437;DHT22;27178;49.460;10.850;2023-04-03T05:12:41;6.70;70.70
41437;DHT22;27178;49.460;10.850;2023-04-03T05:15:10;6.60;70.80
41437;DHT22;27178;49.460;10.850;2023-04-03T05:17:40;6.60;70.90
41437;DHT22;27178;49.460;10.850;2023-04-03T05:20:09;6.60;70.90
41437;DHT22;27178;49.460;10.850;2023-04-03T05:22:38;6.60;71.00
41437;DHT22;27178;49.460;10.850;2023-04-03T05:25:07;6.60;70.90
41437;DHT22;27178;49.460;10.850;2023-04-03T05:27:35;6.60;71.00
41437;DHT22;27178;49.460;10.850;2023-04-03T05:30:05;6.60;71.00
41437;DHT22;27178;49.460;10.850;2023-04-03T05:32:33;6.60;71.00
41437;DHT22;27178;49.460;10.850;2023-04-03T05:35:05;6.50;71.00
41437;DHT22;27178;49.460;10.850;2023-04-03T05:37:34;6.50;71.00
41437;DHT22;27178;49.460;10.850;2023-04-03T05:40:03;6.50;71.00
41437;DHT22;27178;49.460;10.850;2023-04-03T05:42:31;6.50;71.20
41437;DHT22;27178;49.460;10.850;2023-04-03T05:45:00;6.50;71.30
41437;DHT22;27178;49.460;10.850;2023-04-03T05:47:28;6.50;71.30
41437;DHT22;27178;49.460;10.850;2023-04-03T05:49:57;6.50;71.50
41437;DHT22;27178;49.460;10.850;2023-04-03T05:52:29;6.50;71.50
41437;DHT22;27178;49.460;10.850;2023-04-03T05:54:58;6.50;71.70
41437;DHT22;27178;49.460;10.850;2023-04-03T05:57:26;6.50;71.70
41437;DHT22;27178;49.460;10.850;2023-04-03T05:59:55;6.50;71.70
41437;DHT22;27178;49.460;10.850;2023-04-03T06:02:24;6.50;71.70
41437;DHT22;27178;49.460;10.850;2023-04-03T06:04:53;6.50;71.90
41437;DHT22;27178;49.460;10.850;2023-04-03T06:07:22;6.50;71.80
41437;DHT22;27178;49.460;10.850;2023-04-03T06:09:56;6.50;71.90
41437;DHT22;27178;49.460;10.850;2023-04-03T06:12:25;6.50;72.00
41437;DHT22;27178;49.460;10.850;2023-04-03T06:14:55;6.60;72.10
41437;DHT22;27178;49.460;10.850;2023-04-03T06:17:24;6.60;72.10
41437;DHT22;27178;49.460;10.850;2023-04-03T06:19:52;6.60;72.20
41437;DHT22;27178;49.460;10.850;2023-04-03T06:22:20;6.70;72.20
41437;DHT22;27178;49.460;10.850;2023-04-03T06:24:49;6.70;72.20
41437;DHT22;27178;49.460;10.850;2023-04-03T06:27:18;6.70;72.20
41437;DHT22;27178;49.460;10.850;2023-04-03T06:29:47;6.80;72.20
41437;DHT22;27178;49.460;10.850;2023-04-03T06:32:16;6.80;72.00
41437;DHT22;27178;49.460;10.850;2023-04-03T06:34:44;6.90;72.10
41437;DHT22;27178;49.460;10.850;2023-04-03T06:37:15;6.90;72.00
41437;DHT22;27178;49.460;10.850;2023-04-03T06:39:43;7.00;72.00
41437;DHT22;27178;49.460;10.850;2023-04-03T06:42:12;7.00;71.80
41437;DHT22;27178;49.460;10.850;2023-04-03T06:44:42;7.00;71.80
41437;DHT22;27178;49.460;10.850;2023-04-03T06:47:11;7.10;71.70
41437;DHT22;27178;49.460;10.850;2023-04-03T06:49:40;7.10;71.80
41437;DHT22;27178;49.460;10.850;2023-04-03T06:52:10;7.10;71.70
41437;DHT22;27178;49.460;10.850;2023-04-03T06:54:39;7.10;71.70
41437;DHT22;27178;49.460;10.850;2023-04-03T06:57:08;7.20;71.70
41437;DHT22;27178;49.460;10.850;2023-04-03T06:59:37;7.20;71.60
41437;DHT22;27178;49.460;10.850;2023-04-03T07:02:08;7.30;71.60
41437;DHT22;27178;49.460;10.850;2023-04-03T07:04:36;7.30;71.60
41437;DHT22;27178;49.460;10.850;2023-04-03T07:07:05;8.50;72.40
41437;DHT22;27178;49.460;10.850;2023-04-03T07:09:34;7.40;71.60
41437;DHT22;27178;49.460;10.850;2023-04-03T07:12:03;7.40;71.60
41437;DHT22;27178;49.460;10.850;2023-04-03T07:14:32;7.40;71.40
41437;DHT22;27178;49.460;10.850;2023-04-03T07:17:00;7.50;71.40
41437;DHT22;27178;49.460;10.850;2023-04-03T07:19:30;7.50;71.40
41437;DHT22;27178;49.460;10.850;2023-04-03T07:21:58;7.60;71.30
41437;DHT22;27178;49.460;10.850;2023-04-03T07:24:27;7.60;71.10
41437;DHT22;27178;49.460;10.850;2023-04-03T07:26:55;7.70;71.10
41437;DHT22;27178;49.460;10.850;2023-04-03T07:29:24;7.70;71.00
41437;DHT22;27178;49.460;10.850;2023-04-03T07:31:52;7.70;71.00
41437;DHT22;27178;49.460;10.850;2023-04-03T07:34:22;7.80;70.90
41437;DHT22;27178;49.460;10.850;2023-04-03T07:36:52;7.80;70.90
41437;DHT22;27178;49.460;10.850;2023-04-03T07:39:20;7.90;70.50
41437;DHT22;27178;49.460;10.850;2023-04-03T07:41:48;7.90;70.50
41437;DHT22;27178;49.460;10.850;2023-04-03T07:44:17;8.00;70.50
41437;DHT22;27178;49.460;10.850;2023-04-03T07:46:46;8.00;70.50
41437;DHT22;27178;49.460;10.850;2023-04-03T07:49:15;8.10;70.30
41437;DHT22;27178;49.460;10.850;2023-04-03T07:51:44;8.10;70.20
41437;DHT22;27178;49.460;10.850;2023-04-03T07:54:15;8.10;70.10
41437;DHT22;27178;49.460;10.850;2023-04-03T07:56:43;8.20;70.10
41437;DHT22;27178;49.460;10.850;2023-04-03T07:59:11;8.20;70.00
41437;DHT22;27178;49.460;10.850;2023-04-03T08:01:40;8.30;69.80
41437;DHT22;27178;49.460;10.850;2023-04-03T08:04:08;8.30;69.40
41437;DHT22;27178;49.460;10.850;2023-04-03T08:06:37;8.40;69.40
41437;DHT22;27178;49.460;10.850;2023-04-03T08:09:13;8.40;69.00
41437;DHT22;27178;49.460;10.850;2023-04-03T08:11:44;8.40;69.00
41437;DHT22;27178;49.460;10.850;2023-04-03T08:14:12;8.50;69.00
41437;DHT22;27178;49.460;10.850;2023-04-03T08:16:46;8.50;69.00
41437;DHT22;27178;49.460;10.850;2023-04-03T08:19:14;8.60;69.00
41437;DHT22;27178;49.460;10.850;2023-04-03T08:21:52;8.60;68.80
41437;DHT22;27178;49.460;10.850;2023-04-03T08:24:21;8.60;68.30
41437;DHT22;27178;49.460;10.850;2023-04-03T08:26:51;8.70;68.10
41437;DHT22;27178;49.460;10.850;2023-04-03T08:29:19;8.70;67.90
41437;DHT22;27178;49.460;10.850;2023-04-03T08:31:48;8.70;67.80
41437;DHT22;27178;49.460;10.850;2023-04-03T08:34:17;8.70;67.80
41437;DHT22;27178;49.460;10.850;2023-04-03T08:36:45;8.80;67.60
41437;DHT22;27178;49.460;10.850;2023-04-03T08:39:14;8.80;68.00
41437;DHT22;27178;49.460;10.850;2023-04-03T08:41:44;8.80;67.00
41437;DHT22;27178;49.460;10.850;2023-04-03T08:44:21;8.90;67.00
41437;DHT22;27178;49.460;10.850;2023-04-03T08:47:01;8.90;66.90
41437;DHT22;27178;49.460;10.850;2023-04-03T08:49:32;8.90;66.60
41437;DHT22;27178;49.460;10.850;2023-04-03T08:52:04;9.00;66.30
41437;DHT22;27178;49.460;10.850;2023-04-03T08:54:40;9.00;66.00
41437;DHT22;27178;49.460;10.850;2023-04-03T08:57:17;9.00;66.00
41437;DHT22;27178;49.460;10.850;2023-04-03T08:59:49;9.10;66.00
41437;DHT22;27178;49.460;10.850;2023-04-03T09:02:24;9.10;66.00
41437;DHT22;27178;49.460;10.850;2023-04-03T09:04:54;9.20;65.80
41437;DHT22;27178;49.460;10.850;2023-04-03T09:07:32;9.20;65.70
41437;DHT22;27178;49.460;10.850;2023-04-03T09:10:01;9.20;65.20
41437;DHT22;27178;49.460;10.850;2023-04-03T09:12:34;9.20;65.20
41437;DHT22;27178;49.460;10.850;2023-04-03T09:15:14;9.30;64.70
41437;DHT22;27178;49.460;10.850;2023-04-03T09:18:02;9.20;64.50
41437;DHT22;27178;49.460;10.850;2023-04-03T09:20:39;9.30;64.50
41437;DHT22;27178;49.460;10.850;2023-04-03T09:23:20;9.20;64.30
41437;DHT22;27178;49.460;10.850;2023-04-03T09:25:54;9.20;63.90
41437;DHT22;27178;49.460;10.850;2023-04-03T09:28:24;9.20;64.10
41437;DHT22;27178;49.460;10.850;2023-04-03T09:30:56;9.20;64.10
41437;DHT22;27178;49.460;10.850;2023-04-03T09:33:24;9.20;63.90
41437;DHT22;27178;49.460;10.850;2023-04-03T09:35:53;9.20;63.80
41437;DHT22;27178;49.460;10.850;2023-04-03T09:38:22;9.20;63.70
41437;DHT22;27178;49.460;10.850;2023-04-03T09:41:03;9.20;63.90
41437;DHT22;27178;49.460;10.850;2023-04-03T09:43:33;9.20;63.20
41437;DHT22;27178;49.460;10.850;2023-04-03T09:46:29;9.20;63.10
41437;DHT22;27178;49.460;10.850;2023-04-03T09:49:00;9.20;62.40
41437;DHT22;27178;49.460;10.850;2023-04-03T09:51:36;9.20;62.80
41437;DHT22;27178;49.460;10.850;2023-04-03T09:54:35;9.30;62.60
41437;DHT22;27178;49.460;10.850;2023-04-03T09:57:12;9.30;62.10
41437;DHT22;27178;49.460;10.850;2023-04-03T09:59:46;9.40;62.70
41437;DHT22;27178;49.460;10.850;2023-04-03T10:02:30;9.40;62.60
41437;DHT22;27178;49.460;10.850;2023-04-03T10:05:00;9.50;62.30
41437;DHT22;27178;49.460;10.850;2023-04-03T10:07:34;9.60;62.60
41437;DHT22;27178;49.460;10.850;2023-04-03T10:10:18;9.70;62.10
41437;DHT22;27178;49.460;10.850;2023-04-03T10:12:47;9.70;61.80
41437;DHT22;27178;49.460;10.850;2023-04-03T10:15:17;9.80;61.90
41437;DHT22;27178;49.460;10.850;2023-04-03T10:17:56;9.80;61.70
41437;DHT22;27178;49.460;10.850;2023-04-03T10:20:32;9.90;61.30
41437;DHT22;27178;49.460;10.850;2023-04-03T10:23:15;9.90;61.30
41437;DHT22;27178;49.460;10.850;2023-04-03T10:25:55;10.00;61.00
41437;DHT22;27178;49.460;10.850;2023-04-03T10:28:33;10.00;61.10
41437;DHT22;27178;49.460;10.850;2023-04-03T10:31:09;10.10;60.90
41437;DHT22;27178;49.460;10.850;2023-04-03T10:33:53;10.20;60.80
41437;DHT22;27178;49.460;10.850;2023-04-03T10:36:31;10.20;61.20
41437;DHT22;27178;49.460;10.850;2023-04-03T10:39:06;10.20;60.20
41437;DHT22;27178;49.460;10.850;2023-04-03T10:41:50;10.20;60.20
41437;DHT22;27178;49.460;10.850;2023-04-03T10:44:58;10.20;59.70
41437;DHT22;27178;49.460;10.850;2023-04-03T10:47:34;10.10;59.70
41437;DHT22;27178;49.460;10.850;2023-04-03T10:50:26;10.10;59.50
41437;DHT22;27178;49.460;10.850;2023-04-03T10:53:02;10.10;59.30
41437;DHT22;27178;49.460;10.850;2023-04-03T10:55:38;10.10;59.60
41437;DHT22;27178;49.460;10.850;2023-04-03T10:58:07;10.10;59.70
41437;DHT22;27178;49.460;10.850;2023-04-03T11:00:47;10.10;60.00
41437;DHT22;27178;49.460;10.850;2023-04-03T11:03:24;10.10;59.70
41437;DHT22;27178;49.460;10.850;2023-04-03T11:05:57;10.20;59.80
41437;DHT22;27178;49.460;10.850;2023-04-03T11:08:32;10.30;60.20
41437;DHT22;27178;49.460;10.850;2023-04-03T11:11:05;10.40;60.00
41437;DHT22;27178;49.460;10.850;2023-04-03T11:13:40;10.50;59.50
41437;DHT22;27178;49.460;10.850;2023-04-03T11:16:14;10.50;59.20
41437;DHT22;27178;49.460;10.850;2023-04-03T11:18:48;10.60;59.00
41437;DHT22;27178;49.460;10.850;2023-04-03T11:21:21;10.70;59.00
41437;DHT22;27178;49.460;10.850;2023-04-03T11:23:53;10.70;59.10
41437;DHT22;27178;49.460;10.850;2023-04-03T11:26:29;10.70;59.30
41437;DHT22;27178;49.460;10.850;2023-04-03T11:29:03;10.80;59.00
41437;DHT22;27178;49.460;10.850;2023-04-03T11:31:43;10.80;59.00
41437;DHT22;27178;49.460;10.850;2023-04-03T11:34:24;10.90;58.70
41437;DHT22;27178;49.460;10.850;2023-04-03T11:36:59;11.00;58.50
41437;DHT22;27178;49.460;10.850;2023-04-03T11:39:31;11.10;58.60
41437;DHT22;27178;49.460;10.850;2023-04-03T11:42:16;11.20;58.40
41437;DHT22;27178;49.460;10.850;2023-04-03T11:44:45;11.20;57.60
41437;DHT22;27178;49.460;10.850;2023-04-03T11:47:46;11.30;57.80
41437;DHT22;27178;49.460;10.850;2023-04-03T11:50:41;11.30;56.90
41437;DHT22;27178;49.460;10.850;2023-04-03T11:53:34;11.30;57.40
41437;DHT22;27178;49.460;10.850;2023-04-03T11:59:15;11.40;57.80
41437;DHT22;27178;49.460;10.850;2023-04-03T12:01:46;11.40;57.40
41437;DHT22;27178;49.460;10.850;2023-04-03T12:04:16;11.50;57.80
41437;DHT22;27178;49.460;10.850;2023-04-03T12:09:58;11.70;57.20
41437;DHT22;27178;49.460;10.850;2023-04-03T12:12:34;11.80;57.50
41437;DHT22;27178;49.460;10.850;2023-04-03T12:15:25;11.90;57.20
41437;DHT22;27178;49.460;10.850;2023-04-03T12:17:54;12.10;57.00
41437;DHT22;27178;49.460;10.850;2023-04-03T12:20:46;12.20;57.50
41437;DHT22;27178;49.460;10.850;2023-04-03T12:23:27;12.40;56.60
41437;DHT22;27178;49.460;10.850;2023-04-03T12:26:03;12.50;56.90
41437;DHT22;27178;49.460;10.850;2023-04-03T12:28:41;12.70;57.10
41437;DHT22;27178;49.460;10.850;2023-04-03T12:31:10;12.90;56.50
41437;DHT22;27178;49.460;10.850;2023-04-03T12:33:59;13.00;57.10
41437;DHT22;27178;49.460;10.850;2023-04-03T12:36:37;13.20;56.00
41437;DHT22;27178;49.460;10.850;2023-04-03T12:39:23;13.40;55.80
41437;DHT22;27178;49.460;10.850;2023-04-03T12:42:00;13.40;55.40
41437;DHT22;27178;49.460;10.850;2023-04-03T12:44:37;13.40;55.10
41437;DHT22;27178;49.460;10.850;2023-04-03T12:47:22;13.40;54.80
41437;DHT22;27178;49.460;10.850;2023-04-03T12:49:52;13.40;54.90
41437;DHT22;27178;49.460;10.850;2023-04-03T12:52:32;13.50;55.40
41437;DHT22;27178;49.460;10.850;2023-04-03T12:55:02;13.60;55.10
41437;DHT22;27178;49.460;10.850;2023-04-03T12:57:33;13.70;55.30
41437;DHT22;27178;49.460;10.850;2023-04-03T13:00:30;13.80;55.30
41437;DHT22;27178;49.460;10.850;2023-04-03T13:03:01;14.00;54.90
41437;DHT22;27178;49.460;10.850;2023-04-03T13:05:32;14.20;55.40
41437;DHT22;27178;49.460;10.850;2023-04-03T13:08:04;14.40;55.30
41437;DHT22;27178;49.460;10.850;2023-04-03T13:10:46;14.60;55.40
41437;DHT22;27178;49.460;10.850;2023-04-03T13:13:17;14.80;54.50
41437;DHT22;27178;49.460;10.850;2023-04-03T13:15:47;14.90;54.20
41437;DHT22;27178;49.460;10.850;2023-04-03T13:18:23;15.00;54.00
41437;DHT22;27178;49.460;10.850;2023-04-03T13:20:53;15.10;53.90
41437;DHT22;27178;49.460;10.850;2023-04-03T13:23:23;15.30;54.30
41437;DHT22;27178;49.460;10.850;2023-04-03T13:25:52;15.40;54.10
41437;DHT22;27178;49.460;10.850;2023-04-03T13:28:24;15.50;54.00
41437;DHT22;27178;49.460;10.850;2023-04-03T13:31:06;15.70;53.80
41437;DHT22;27178;49.460;10.850;2023-04-03T13:33:37;15.90;53.10
41437;DHT22;27178;49.460;10.850;2023-04-03T13:36:08;16.10;53.60
41437;DHT22;27178;49.460;10.850;2023-04-03T13:38:41;16.30;53.30
41437;DHT22;27178;49.460;10.850;2023-04-03T13:41:24;16.40;53.00
41437;DHT22;27178;49.460;10.850;2023-04-03T13:43:55;16.50;51.70
41437;DHT22;27178;49.460;10.850;2023-04-03T13:46:36;16.60;51.70
41437;DHT22;27178;49.460;10.850;2023-04-03T13:49:18;16.60;51.50
41437;DHT22;27178;49.460;10.850;2023-04-03T13:51:47;16.60;50.50
41437;DHT22;27178;49.460;10.850;2023-04-03T13:54:33;16.60;51.30
41437;DHT22;27178;49.460;10.850;2023-04-03T13:57:10;16.60;51.40
41437;DHT22;27178;49.460;10.850;2023-04-03T13:59:41;16.70;51.40
41437;DHT22;27178;49.460;10.850;2023-04-03T14:02:17;16.70;51.20
41437;DHT22;27178;49.460;10.850;2023-04-03T14:04:52;16.80;50.40
41437;DHT22;27178;49.460;10.850;2023-04-03T14:07:23;16.80;50.40
41437;DHT22;27178;49.460;10.850;2023-04-03T14:09:53;16.90;50.60
41437;DHT22;27178;49.460;10.850;2023-04-03T14:12:25;17.00;50.90
41437;DHT22;27178;49.460;10.850;2023-04-03T14:15:00;17.10;50.90
41437;DHT22;27178;49.460;10.850;2023-04-03T14:17:29;17.30;50.90
41437;DHT22;27178;49.460;10.850;2023-04-03T14:19:58;17.40;50.80
41437;DHT22;27178;49.460;10.850;2023-04-03T14:22:30;17.60;50.50
41437;DHT22;27178;49.460;10.850;2023-04-03T14:24:59;17.80;50.00
41437;DHT22;27178;49.460;10.850;2023-04-03T14:27:29;18.00;50.20
41437;DHT22;27178;49.460;10.850;2023-04-03T14:30:00;18.10;50.10
41437;DHT22;27178;49.460;10.850;2023-04-03T14:32:30;18.30;50.00
41437;DHT22;27178;49.460;10.850;2023-04-03T14:34:59;18.40;49.90
41437;DHT22;27178;49.460;10.850;2023-04-03T14:37:29;19.00;49.40
41437;DHT22;27178;49.460;10.850;2023-04-03T14:40:01;18.70;48.80
41437;DHT22;27178;49.460;10.850;2023-04-03T14:42:33;18.80;48.60
41437;DHT22;27178;49.460;10.850;2023-04-03T14:45:05;19.00;48.30
41437;DHT22;27178;49.460;10.850;2023-04-03T14:47:37;19.10;47.90
41437;DHT22;27178;49.460;10.850;2023-04-03T14:50:11;19.20;47.90
41437;DHT22;27178;49.460;10.850;2023-04-03T14:52:41;19.30;47.80
41437;DHT22;27178;49.460;10.850;2023-04-03T14:55:10;19.40;47.70
41437;DHT22;27178;49.460;10.850;2023-04-03T14:57:39;19.50;46.90
41437;DHT22;27178;49.460;10.850;2023-04-03T15:00:14;19.50;46.50
41437;DHT22;27178;49.460;10.850;2023-04-03T15:02:43;19.40;45.60
41437;DHT22;27178;49.460;10.850;2023-04-03T15:05:13;19.40;46.50
41437;DHT22;27178;49.460;10.850;2023-04-03T15:07:54;19.30;46.10
41437;DHT22;27178;49.460;10.850;2023-04-03T15:10:25;19.30;45.60
41437;DHT22;27178;49.460;10.850;2023-04-03T15:12:53;19.40;46.10
41437;DHT22;27178;49.460;10.850;2023-04-03T15:15:24;19.40;46.10
41437;DHT22;27178;49.460;10.850;2023-04-03T15:17:56;19.50;45.90
41437;DHT22;27178;49.460;10.850;2023-04-03T15:20:27;19.50;45.80
41437;DHT22;27178;49.460;10.850;2023-04-03T15:22:57;19.50;45.70
41437;DHT22;27178;49.460;10.850;2023-04-03T15:25:28;19.40;44.60
41437;DHT22;27178;49.460;10.850;2023-04-03T15:27:57;19.30;44.30
41437;DHT22;27178;49.460;10.850;2023-04-03T15:30:27;19.00;44.30
41437;DHT22;27178;49.460;10.850;2023-04-03T15:32:55;18.80;44.10
41437;DHT22;27178;49.460;10.850;2023-04-03T15:35:24;18.60;44.60
41437;DHT22;27178;49.460;10.850;2023-04-03T15:37:52;18.50;44.80
41437;DHT22;27178;49.460;10.850;2023-04-03T15:40:20;18.50;45.30
41437;DHT22;27178;49.460;10.850;2023-04-03T15:42:49;18.50;45.50
41437;DHT22;27178;49.460;10.850;2023-04-03T15:45:20;18.60;45.20
41437;DHT22;27178;49.460;10.850;2023-04-03T15:47:50;18.70;45.10
41437;DHT22;27178;49.460;10.850;2023-04-03T15:50:19;18.70;44.70
41437;DHT22;27178;49.460;10.850;2023-04-03T15:52:49;18.80;44.90
41437;DHT22;27178;49.460;10.850;2023-04-03T15:55:21;18.90;44.90
41437;DHT22;27178;49.460;10.850;2023-04-03T15:57:50;19.00;44.70
41437;DHT22;27178;49.460;10.850;2023-04-03T16:00:19;19.10;44.50
41437;DHT22;27178;49.460;10.850;2023-04-03T16:02:53;19.20;44.20
41437;DHT22;27178;49.460;10.850;2023-04-03T16:05:24;19.20;43.50